sensor_id;sensor_type;location;lat;lon;timestamp;temperature;humidity
38118;DHT22;23928;47.562;7.508;2023-06-26T00:00:03;19.40;99.90
38118;DHT22;23928;47.562;7.508;2023-06-26T00:02:30;19.70;99.90
38118;DHT22;23928;47.562;7.508;2023-06-26T00:04:58;19.40;99.90
38118;DHT22;23928;47.562;7.508;2023-06-26T00:07:24;19.80;99.90
38118;DHT22;23928;47.562;7.508;2023-06-26T00:09:49;19.40;99.90
38118;DHT22;23928;47.562;7.508;2023-06-26T00:12:15;19.30;99.90
38118;DHT22;23928;47.562;7.508;2023-06-26T00:14:40;19.60;99.90
38118;DHT22;23928;47.562;7.508;2023-06-26T00:17:06;19.30;99.90
38118;DHT22;23928;47.562;7.508;2023-06-26T00:19:31;19.50;99.90
38118;DHT22;23928;47.562;7.508;2023-06-26T00:21:58;19.70;99.90
38118;DHT22;23928;47.562;7.508;2023-06-26T00:24:24;19.60;99.90
38118;DHT22;23928;47.562;7.508;2023-06-26T00:26:49;19.50;99.90
38118;DHT22;23928;47.562;7.508;2023-06-26T00:29:15;19.50;99.90
38118;DHT22;23928;47.562;7.508;2023-06-26T00:31:41;19.40;99.90
38118;DHT22;23928;47.562;7.508;2023-06-26T00:34:07;19.40;99.90
38118;DHT22;23928;47.562;7.508;2023-06-26T00:36:32;19.40;99.90
38118;DHT22;23928;47.562;7.508;2023-06-26T00:38:58;19.40;99.90
38118;DHT22;23928;47.562;7.508;2023-06-26T00:41:24;19.60;99.90
38118;DHT22;23928;47.562;7.508;2023-06-26T00:43:50;19.40;99.90
38118;DHT22;23928;47.562;7.508;2023-06-26T00:46:16;19.20;99.90
38118;DHT22;23928;47.562;7.508;2023-06-26T00:48:43;19.10;99.90
38118;DHT22;23928;47.562;7.508;2023-06-26T00:51:09;18.90;99.90
38118;DHT22;23928;47.562;7.508;2023-06-26T00:53:35;19.10;99.90
38118;DHT22;23928;47.562;7.508;2023-06-26T00:56:02;19.20;99.90
38118;DHT22;23928;47.562;7.508;2023-06-26T00:58:28;19.30;99.90
38118;DHT22;23928;47.562;7.508;2023-06-26T01:00:54;19.40;99.90
38118;DHT22;23928;47.562;7.508;2023-06-26T01:03:23;19.30;99.90
38118;DHT22;23928;47.562;7.508;2023-06-26T01:05:52;19.30;99.90
38118;DHT22;23928;47.562;7.508;2023-06-26T01:08:18;19.20;99.90
38118;DHT22;23928;47.562;7.508;2023-06-26T01:10:45;19.00;99.90
38118;DHT22;23928;47.562;7.508;2023-06-26T01:13:11;18.90;99.90
38118;DHT22;23928;47.562;7.508;2023-06-26T01:15:38;18.70;99.90
38118;DHT22;23928;47.562;7.508;2023-06-26T01:18:05;18.70;99.90
38118;DHT22;23928;47.562;7.508;2023-06-26T01:20:41;18.80;99.90
38118;DHT22;23928;47.562;7.508;2023-06-26T01:23:24;18.70;99.90
38118;DHT22;23928;47.562;7.508;2023-06-26T01:28:34;18.70;99.90
38118;DHT22;23928;47.562;7.508;2023-06-26T01:31:02;18.90;99.90
38118;DHT22;23928;47.562;7.508;2023-06-26T01:33:28;19.00;99.90
38118;DHT22;23928;47.562;7.508;2023-06-26T01:35:54;18.80;99.90
38118;DHT22;23928;47.562;7.508;2023-06-26T01:38:20;18.70;99.90
38118;DHT22;23928;47.562;7.508;2023-06-26T01:40:48;18.80;99.90
38118;DHT22;23928;47.562;7.508;2023-06-26T01:46:27;19.00;99.90
38118;DHT22;23928;47.562;7.508;2023-06-26T01:49:15;18.80;99.90
38118;DHT22;23928;47.562;7.508;2023-06-26T01:57:22;18.50;99.90
38118;DHT22;23928;47.562;7.508;2023-06-26T01:59:51;18.70;99.90
38118;DHT22;23928;47.562;7.508;2023-06-26T02:02:17;18.90;99.90
38118;DHT22;23928;47.562;7.508;2023-06-26T02:04:42;18.90;99.90
38118;DHT22;23928;47.562;7.508;2023-06-26T02:07:08;18.80;99.90
38118;DHT22;23928;47.562;7.508;2023-06-26T02:09:34;18.70;99.90
38118;DHT22;23928;47.562;7.508;2023-06-26T02:12:00;18.40;99.90
38118;DHT22;23928;47.562;7.508;2023-06-26T02:14:26;18.20;99.90
38118;DHT22;23928;47.562;7.508;2023-06-26T02:16:51;18.40;99.90
38118;DHT22;23928;47.562;7.508;2023-06-26T02:19:17;18.60;99.90
38118;DHT22;23928;47.562;7.508;2023-06-26T02:21:49;18.50;99.90
38118;DHT22;23928;47.562;7.508;2023-06-26T02:24:15;18.30;99.90
38118;DHT22;23928;47.562;7.508;2023-06-26T02:26:40;18.30;99.90
38118;DHT22;23928;47.562;7.508;2023-06-26T02:29:06;18.30;99.90
38118;DHT22;23928;47.562;7.508;2023-06-26T02:31:31;18.10;99.90
38118;DHT22;23928;47.562;7.508;2023-06-26T02:33:57;17.90;99.90
38118;DHT22;23928;47.562;7.508;2023-06-26T02:36:23;17.70;99.90
38118;DHT22;23928;47.562;7.508;2023-06-26T02:38:48;17.80;99.90
38118;DHT22;23928;47.562;7.508;2023-06-26T02:41:14;17.80;99.90
38118;DHT22;23928;47.562;7.508;2023-06-26T02:43:40;17.80;99.90
38118;DHT22;23928;47.562;7.508;2023-06-26T02:46:05;17.80;99.90
38118;DHT22;23928;47.562;7.508;2023-06-26T02:48:31;17.90;99.90
38118;DHT22;23928;47.562;7.508;2023-06-26T02:50:56;18.10;99.90
38118;DHT22;23928;47.562;7.508;2023-06-26T02:53:22;17.70;99.90
38118;DHT22;23928;47.562;7.508;2023-06-26T02:55:48;17.70;99.90
38118;DHT22;23928;47.562;7.508;2023-06-26T02:58:13;18.00;99.90
38118;DHT22;23928;47.562;7.508;2023-06-26T03:00:39;18.10;99.90
38118;DHT22;23928;47.562;7.508;2023-06-26T03:03:07;17.90;99.90
38118;DHT22;23928;47.562;7.508;2023-06-26T03:05:33;17.90;99.90
38118;DHT22;23928;47.562;7.508;2023-06-26T03:07:58;18.10;99.90
38118;DHT22;23928;47.562;7.508;2023-06-26T03:10:24;17.90;99.90
38118;DHT22;23928;47.562;7.508;2023-06-26T03:12:50;17.90;99.90
38118;DHT22;23928;47.562;7.508;2023-06-26T03:15:15;17.90;99.90
38118;DHT22;23928;47.562;7.508;2023-06-26T03:17:41;18.10;99.90
38118;DHT22;23928;47.562;7.508;2023-06-26T03:20:07;18.20;99.90
38118;DHT22;23928;47.562;7.508;2023-06-26T03:22:33;17.90;99.90
38118;DHT22;23928;47.562;7.508;2023-06-26T03:24:59;17.70;99.90
38118;DHT22;23928;47.562;7.508;2023-06-26T03:27:25;17.70;99.90
38118;DHT22;23928;47.562;7.508;2023-06-26T03:29:52;17.80;99.90
38118;DHT22;23928;47.562;7.508;2023-06-26T03:32:18;17.80;99.90
38118;DHT22;23928;47.562;7.508;2023-06-26T03:34:43;17.80;99.90
38118;DHT22;23928;47.562;7.508;2023-06-26T03:37:09;17.60;99.90
38118;DHT22;23928;47.562;7.508;2023-06-26T03:39:34;17.50;99.90
38118;DHT22;23928;47.562;7.508;2023-06-26T03:42:00;17.70;99.90
38118;DHT22;23928;47.562;7.508;2023-06-26T03:44:27;17.90;99.90
38118;DHT22;23928;47.562;7.508;2023-06-26T03:46:53;17.70;99.90
38118;DHT22;23928;47.562;7.508;2023-06-26T03:49:18;17.70;99.90
38118;DHT22;23928;47.562;7.508;2023-06-26T03:51:44;17.50;99.90
38118;DHT22;23928;47.562;7.508;2023-06-26T03:54:10;17.60;99.90
38118;DHT22;23928;47.562;7.508;2023-06-26T03:56:36;17.80;99.90
38118;DHT22;23928;47.562;7.508;2023-06-26T03:59:02;17.60;99.90
38118;DHT22;23928;47.562;7.508;2023-06-26T04:01:28;17.70;99.90
38118;DHT22;23928;47.562;7.508;2023-06-26T04:03:54;17.60;99.90
38118;DHT22;23928;47.562;7.508;2023-06-26T04:06:19;17.50;99.90
38118;DHT22;23928;47.562;7.508;2023-06-26T04:08:45;17.80;99.90
38118;DHT22;23928;47.562;7.508;2023-06-26T04:11:11;18.00;99.90
38118;DHT22;23928;47.562;7.508;2023-06-26T04:13:36;18.30;99.90
38118;DHT22;23928;47.562;7.508;2023-06-26T04:16:02;18.20;99.90
38118;DHT22;23928;47.562;7.508;2023-06-26T04:18:27;18.40;99.90
38118;DHT22;23928;47.562;7.508;2023-06-26T04:21:12;18.40;99.90
38118;DHT22;23928;47.562;7.508;2023-06-26T04:23:39;18.30;99.90
38118;DHT22;23928;47.562;7.508;2023-06-26T04:26:06;18.20;99.90
38118;DHT22;23928;47.562;7.508;2023-06-26T04:28:32;18.20;99.90
38118;DHT22;23928;47.562;7.508;2023-06-26T04:30:59;18.10;99.90
38118;DHT22;23928;47.562;7.508;2023-06-26T04:33:25;18.10;99.90
38118;DHT22;23928;47.562;7.508;2023-06-26T04:35:52;18.30;99.90
38118;DHT22;23928;47.562;7.508;2023-06-26T04:38:18;18.40;99.90
38118;DHT22;23928;47.562;7.508;2023-06-26T04:40:43;18.50;99.90
38118;DHT22;23928;47.562;7.508;2023-06-26T04:43:09;18.50;99.90
38118;DHT22;23928;47.562;7.508;2023-06-26T04:45:35;18.50;99.90
38118;DHT22;23928;47.562;7.508;2023-06-26T04:48:01;18.60;99.90
38118;DHT22;23928;47.562;7.508;2023-06-26T04:50:26;18.60;99.90
38118;DHT22;23928;47.562;7.508;2023-06-26T04:52:54;18.60;99.90
38118;DHT22;23928;47.562;7.508;2023-06-26T04:55:20;18.60;99.90
38118;DHT22;23928;47.562;7.508;2023-06-26T04:57:47;18.50;99.90
38118;DHT22;23928;47.562;7.508;2023-06-26T05:00:13;18.70;99.90
38118;DHT22;23928;47.562;7.508;2023-06-26T05:02:39;18.60;99.90
38118;DHT22;23928;47.562;7.508;2023-06-26T05:05:05;18.70;99.90
38118;DHT22;23928;47.562;7.508;2023-06-26T05:07:30;18.60;99.90
38118;DHT22;23928;47.562;7.508;2023-06-26T05:09:56;18.70;99.90
38118;DHT22;23928;47.562;7.508;2023-06-26T05:12:22;18.90;99.90
38118;DHT22;23928;47.562;7.508;2023-06-26T05:14:47;18.80;99.90
38118;DHT22;23928;47.562;7.508;2023-06-26T05:17:16;19.00;99.90
38118;DHT22;23928;47.562;7.508;2023-06-26T05:19:41;19.10;99.90
38118;DHT22;23928;47.562;7.508;2023-06-26T05:22:07;19.20;99.90
38118;DHT22;23928;47.562;7.508;2023-06-26T05:24:37;19.20;99.90
38118;DHT22;23928;47.562;7.508;2023-06-26T05:27:03;19.40;99.90
38118;DHT22;23928;47.562;7.508;2023-06-26T05:29:31;19.60;99.90
38118;DHT22;23928;47.562;7.508;2023-06-26T05:31:57;19.70;99.90
38118;DHT22;23928;47.562;7.508;2023-06-26T05:34:23;19.80;99.90
38118;DHT22;23928;47.562;7.508;2023-06-26T05:36:57;19.90;99.90
38118;DHT22;23928;47.562;7.508;2023-06-26T05:39:23;19.80;99.90
38118;DHT22;23928;47.562;7.508;2023-06-26T05:41:50;19.80;99.90
38118;DHT22;23928;47.562;7.508;2023-06-26T05:44:16;19.80;99.90
38118;DHT22;23928;47.562;7.508;2023-06-26T05:46:41;20.00;99.90
38118;DHT22;23928;47.562;7.508;2023-06-26T05:49:07;20.20;99.90
38118;DHT22;23928;47.562;7.508;2023-06-26T05:51:33;20.30;99.90
38118;DHT22;23928;47.562;7.508;2023-06-26T05:53:58;20.40;99.90
38118;DHT22;23928;47.562;7.508;2023-06-26T05:56:24;20.40;99.90
38118;DHT22;23928;47.562;7.508;2023-06-26T05:58:50;20.40;99.90
38118;DHT22;23928;47.562;7.508;2023-06-26T06:01:17;20.50;99.90
38118;DHT22;23928;47.562;7.508;2023-06-26T06:03:42;20.70;99.90
38118;DHT22;23928;47.562;7.508;2023-06-26T06:06:08;20.80;99.90
38118;DHT22;23928;47.562;7.508;2023-06-26T06:08:33;20.90;99.90
38118;DHT22;23928;47.562;7.508;2023-06-26T06:11:00;21.00;99.90
38118;DHT22;23928;47.562;7.508;2023-06-26T06:13:26;21.20;99.90
38118;DHT22;23928;47.562;7.508;2023-06-26T06:15:51;21.30;99.90
38118;DHT22;23928;47.562;7.508;2023-06-26T06:18:17;21.50;99.90
38118;DHT22;23928;47.562;7.508;2023-06-26T06:20:43;21.50;99.90
38118;DHT22;23928;47.562;7.508;2023-06-26T06:23:08;21.60;99.90
38118;DHT22;23928;47.562;7.508;2023-06-26T06:25:34;21.60;99.90
38118;DHT22;23928;47.562;7.508;2023-06-26T06:27:59;21.60;99.90
38118;DHT22;23928;47.562;7.508;2023-06-26T06:30:25;21.80;99.90
38118;DHT22;23928;47.562;7.508;2023-06-26T06:32:50;21.90;99.90
38118;DHT22;23928;47.562;7.508;2023-06-26T06:35:18;22.10;99.90
38118;DHT22;23928;47.562;7.508;2023-06-26T06:37:44;22.20;99.90
38118;DHT22;23928;47.562;7.508;2023-06-26T06:40:10;22.30;99.90
38118;DHT22;23928;47.562;7.508;2023-06-26T06:42:36;22.30;99.90
38118;DHT22;23928;47.562;7.508;2023-06-26T06:45:03;22.50;99.90
38118;DHT22;23928;47.562;7.508;2023-06-26T06:47:29;22.50;99.90
38118;DHT22;23928;47.562;7.508;2023-06-26T06:49:54;22.70;99.90
38118;DHT22;23928;47.562;7.508;2023-06-26T06:52:20;22.70;99.90
38118;DHT22;23928;47.562;7.508;2023-06-26T06:54:53;22.90;99.90
38118;DHT22;23928;47.562;7.508;2023-06-26T06:57:19;23.00;99.90
38118;DHT22;23928;47.562;7.508;2023-06-26T06:59:45;23.20;99.90
38118;DHT22;23928;47.562;7.508;2023-06-26T07:02:13;23.40;99.90
38118;DHT22;23928;47.562;7.508;2023-06-26T07:04:38;23.60;99.90
38118;DHT22;23928;47.562;7.508;2023-06-26T07:07:04;23.80;99.90
38118;DHT22;23928;47.562;7.508;2023-06-26T07:09:30;24.00;99.90
38118;DHT22;23928;47.562;7.508;2023-06-26T07:11:55;24.10;99.90
38118;DHT22;23928;47.562;7.508;2023-06-26T07:14:21;24.10;99.90
38118;DHT22;23928;47.562;7.508;2023-06-26T07:16:46;24.20;99.90
38118;DHT22;23928;47.562;7.508;2023-06-26T07:19:12;24.30;99.90
38118;DHT22;23928;47.562;7.508;2023-06-26T07:21:37;24.50;99.90
38118;DHT22;23928;47.562;7.508;2023-06-26T07:24:03;24.60;99.90
38118;DHT22;23928;47.562;7.508;2023-06-26T07:26:28;24.40;99.90
38118;DHT22;23928;47.562;7.508;2023-06-26T07:28:54;24.30;99.90
38118;DHT22;23928;47.562;7.508;2023-06-26T07:31:22;24.30;99.90
38118;DHT22;23928;47.562;7.508;2023-06-26T07:33:47;24.20;99.90
38118;DHT22;23928;47.562;7.508;2023-06-26T07:36:13;24.20;99.90
38118;DHT22;23928;47.562;7.508;2023-06-26T07:38:39;24.30;99.90
38118;DHT22;23928;47.562;7.508;2023-06-26T07:41:04;24.60;99.90
38118;DHT22;23928;47.562;7.508;2023-06-26T07:43:30;24.80;99.90
38118;DHT22;23928;47.562;7.508;2023-06-26T07:45:56;24.90;99.90
38118;DHT22;23928;47.562;7.508;2023-06-26T07:48:24;24.90;99.90
38118;DHT22;23928;47.562;7.508;2023-06-26T07:50:50;24.90;99.90
38118;DHT22;23928;47.562;7.508;2023-06-26T07:53:15;24.80;99.90
38118;DHT22;23928;47.562;7.508;2023-06-26T07:55:42;24.50;99.90
38118;DHT22;23928;47.562;7.508;2023-06-26T07:58:08;24.20;99.90
38118;DHT22;23928;47.562;7.508;2023-06-26T08:00:34;24.10;99.90
38118;DHT22;23928;47.562;7.508;2023-06-26T08:02:59;24.30;99.90
38118;DHT22;23928;47.562;7.508;2023-06-26T08:05:25;24.60;99.90
38118;DHT22;23928;47.562;7.508;2023-06-26T08:07:50;25.00;99.90
38118;DHT22;23928;47.562;7.508;2023-06-26T08:10:16;25.30;99.90
38118;DHT22;23928;47.562;7.508;2023-06-26T08:12:42;25.70;99.90
38118;DHT22;23928;47.562;7.508;2023-06-26T08:15:11;25.90;99.90
38118;DHT22;23928;47.562;7.508;2023-06-26T08:17:37;26.10;99.90
38118;DHT22;23928;47.562;7.508;2023-06-26T08:20:04;26.10;99.90
38118;DHT22;23928;47.562;7.508;2023-06-26T08:22:30;26.20;99.90
38118;DHT22;23928;47.562;7.508;2023-06-26T08:24:55;26.20;99.90
38118;DHT22;23928;47.562;7.508;2023-06-26T08:27:21;26.10;99.90
38118;DHT22;23928;47.562;7.508;2023-06-26T08:29:47;26.40;99.90
38118;DHT22;23928;47.562;7.508;2023-06-26T08:32:12;26.50;99.90
38118;DHT22;23928;47.562;7.508;2023-06-26T08:34:38;26.50;99.90
38118;DHT22;23928;47.562;7.508;2023-06-26T08:37:03;26.50;99.90
38118;DHT22;23928;47.562;7.508;2023-06-26T08:39:29;26.70;99.90
38118;DHT22;23928;47.562;7.508;2023-06-26T08:41:55;26.50;99.90
38118;DHT22;23928;47.562;7.508;2023-06-26T08:44:20;26.60;99.90
38118;DHT22;23928;47.562;7.508;2023-06-26T08:46:50;26.50;99.90
38118;DHT22;23928;47.562;7.508;2023-06-26T08:49:37;26.50;99.90
38118;DHT22;23928;47.562;7.508;2023-06-26T08:52:13;26.60;99.90
38118;DHT22;23928;47.562;7.508;2023-06-26T08:54:46;26.60;99.90
38118;DHT22;23928;47.562;7.508;2023-06-26T08:57:15;26.60;99.90
38118;DHT22;23928;47.562;7.508;2023-06-26T08:59:43;26.60;99.90
38118;DHT22;23928;47.562;7.508;2023-06-26T09:02:08;26.70;99.90
38118;DHT22;23928;47.562;7.508;2023-06-26T09:04:35;26.70;99.90
38118;DHT22;23928;47.562;7.508;2023-06-26T09:07:01;26.50;99.90
38118;DHT22;23928;47.562;7.508;2023-06-26T09:09:28;26.40;99.90
38118;DHT22;23928;47.562;7.508;2023-06-26T09:11:53;26.70;99.90
38118;DHT22;23928;47.562;7.508;2023-06-26T09:14:21;26.80;99.90
38118;DHT22;23928;47.562;7.508;2023-06-26T09:16:46;26.90;99.90
38118;DHT22;23928;47.562;7.508;2023-06-26T09:19:12;27.00;99.90
38118;DHT22;23928;47.562;7.508;2023-06-26T09:21:39;26.90;99.90
38118;DHT22;23928;47.562;7.508;2023-06-26T09:24:07;27.20;99.90
38118;DHT22;23928;47.562;7.508;2023-06-26T09:26:35;27.10;99.90
38118;DHT22;23928;47.562;7.508;2023-06-26T09:29:01;27.20;99.90
38118;DHT22;23928;47.562;7.508;2023-06-26T09:31:27;27.10;99.90
38118;DHT22;23928;47.562;7.508;2023-06-26T09:33:58;27.10;99.90
38118;DHT22;23928;47.562;7.508;2023-06-26T09:36:28;26.70;99.90
38118;DHT22;23928;47.562;7.508;2023-06-26T09:38:54;26.30;99.90
38118;DHT22;23928;47.562;7.508;2023-06-26T09:41:20;26.20;99.90
38118;DHT22;23928;47.562;7.508;2023-06-26T09:43:50;26.40;99.90
38118;DHT22;23928;47.562;7.508;2023-06-26T09:46:25;26.60;99.90
38118;DHT22;23928;47.562;7.508;2023-06-26T09:49:09;26.50;99.90
38118;DHT22;23928;47.562;7.508;2023-06-26T09:51:37;26.70;99.90
38118;DHT22;23928;47.562;7.508;2023-06-26T09:54:04;26.30;99.90
38118;DHT22;23928;47.562;7.508;2023-06-26T09:56:30;26.50;99.90
38118;DHT22;23928;47.562;7.508;2023-06-26T09:58:59;26.50;99.90
38118;DHT22;23928;47.562;7.508;2023-06-26T10:01:25;26.60;99.90
38118;DHT22;23928;47.562;7.508;2023-06-26T10:03:51;26.30;99.90
38118;DHT22;23928;47.562;7.508;2023-06-26T10:06:19;26.10;99.90
38118;DHT22;23928;47.562;7.508;2023-06-26T10:08:48;25.80;99.90
38118;DHT22;23928;47.562;7.508;2023-06-26T10:11:16;26.20;99.90
38118;DHT22;23928;47.562;7.508;2023-06-26T10:13:45;26.40;99.90
38118;DHT22;23928;47.562;7.508;2023-06-26T10:16:13;26.30;99.90
38118;DHT22;23928;47.562;7.508;2023-06-26T10:18:43;26.60;99.90
38118;DHT22;23928;47.562;7.508;2023-06-26T10:21:12;27.50;99.90
38118;DHT22;23928;47.562;7.508;2023-06-26T10:23:41;27.50;99.90
38118;DHT22;23928;47.562;7.508;2023-06-26T10:26:09;27.50;99.90
38118;DHT22;23928;47.562;7.508;2023-06-26T10:28:37;26.90;99.90
38118;DHT22;23928;47.562;7.508;2023-06-26T10:31:04;26.60;99.90
38118;DHT22;23928;47.562;7.508;2023-06-26T10:33:31;26.60;99.90
38118;DHT22;23928;47.562;7.508;2023-06-26T10:36:17;26.30;99.90
38118;DHT22;23928;47.562;7.508;2023-06-26T10:38:55;26.60;99.90
38118;DHT22;23928;47.562;7.508;2023-06-26T10:41:22;26.60;99.90
38118;DHT22;23928;47.562;7.508;2023-06-26T10:44:10;26.60;99.90
38118;DHT22;23928;47.562;7.508;2023-06-26T10:46:51;26.70;99.90
38118;DHT22;23928;47.562;7.508;2023-06-26T10:49:30;26.20;99.90
38118;DHT22;23928;47.562;7.508;2023-06-26T10:52:01;26.00;99.90
38118;DHT22;23928;47.562;7.508;2023-06-26T10:54:33;26.10;99.90
38118;DHT22;23928;47.562;7.508;2023-06-26T10:57:01;26.00;99.90
38118;DHT22;23928;47.562;7.508;2023-06-26T10:59:28;26.10;99.90
38118;DHT22;23928;47.562;7.508;2023-06-26T11:01:56;26.30;99.90
38118;DHT22;23928;47.562;7.508;2023-06-26T11:04:44;26.20;99.90
38118;DHT22;23928;47.562;7.508;2023-06-26T11:07:22;26.40;99.90
38118;DHT22;23928;47.562;7.508;2023-06-26T11:10:02;26.60;99.90
38118;DHT22;23928;47.562;7.508;2023-06-26T11:12:43;26.30;99.90
38118;DHT22;23928;47.562;7.508;2023-06-26T11:15:11;26.50;99.90
38118;DHT22;23928;47.562;7.508;2023-06-26T11:17:37;26.80;99.90
38118;DHT22;23928;47.562;7.508;2023-06-26T11:20:08;26.90;99.90
38118;DHT22;23928;47.562;7.508;2023-06-26T11:22:35;26.70;99.90
38118;DHT22;23928;47.562;7.508;2023-06-26T11:25:02;26.30;99.90
38118;DHT22;23928;47.562;7.508;2023-06-26T11:27:46;26.30;99.90
38118;DHT22;23928;47.562;7.508;2023-06-26T11:30:23;27.10;99.90
38118;DHT22;23928;47.562;7.508;2023-06-26T11:32:49;27.90;99.90
38118;DHT22;23928;47.562;7.508;2023-06-26T11:35:25;28.20;99.90
38118;DHT22;23928;47.562;7.508;2023-06-26T11:37:59;28.20;99.90
38118;DHT22;23928;47.562;7.508;2023-06-26T11:40:27;28.30;99.90
38118;DHT22;23928;47.562;7.508;2023-06-26T11:42:56;28.30;99.90
38118;DHT22;23928;47.562;7.508;2023-06-26T11:45:22;27.70;99.90
38118;DHT22;23928;47.562;7.508;2023-06-26T11:47:48;28.00;99.90
38118;DHT22;23928;47.562;7.508;2023-06-26T11:50:17;27.60;99.90
38118;DHT22;23928;47.562;7.508;2023-06-26T11:52:43;27.80;99.90
38118;DHT22;23928;47.562;7.508;2023-06-26T11:55:10;27.50;99.90
38118;DHT22;23928;47.562;7.508;2023-06-26T11:57:36;27.30;99.90
38118;DHT22;23928;47.562;7.508;2023-06-26T12:00:14;27.50;99.90
38118;DHT22;23928;47.562;7.508;2023-06-26T12:02:41;27.90;99.90
38118;DHT22;23928;47.562;7.508;2023-06-26T12:05:08;28.20;99.90
38118;DHT22;23928;47.562;7.508;2023-06-26T12:07:34;28.10;99.90
38118;DHT22;23928;47.562;7.508;2023-06-26T12:10:01;27.70;99.90
38118;DHT22;23928;47.562;7.508;2023-06-26T12:12:27;27.60;99.90
38118;DHT22;23928;47.562;7.508;2023-06-26T12:14:53;27.80;99.90
38118;DHT22;23928;47.562;7.508;2023-06-26T12:17:22;27.40;99.90
38118;DHT22;23928;47.562;7.508;2023-06-26T12:19:50;27.30;99.90
38118;DHT22;23928;47.562;7.508;2023-06-26T12:22:17;27.50;99.90
38118;DHT22;23928;47.562;7.508;2023-06-26T12:24:44;27.30;99.90
38118;DHT22;23928;47.562;7.508;2023-06-26T12:27:11;27.40;99.90
38118;DHT22;23928;47.562;7.508;2023-06-26T12:29:39;27.50;99.90
38118;DHT22;23928;47.562;7.508;2023-06-26T12:32:08;27.60;99.90
38118;DHT22;23928;47.562;7.508;2023-06-26T12:34:36;27.50;99.90
38118;DHT22;23928;47.562;7.508;2023-06-26T12:37:04;27.30;99.90
38118;DHT22;23928;47.562;7.508;2023-06-26T12:39:51;27.40;99.90
38118;DHT22;23928;47.562;7.508;2023-06-26T12:42:24;27.50;99.90
38118;DHT22;23928;47.562;7.508;2023-06-26T12:44:51;28.10;99.90
38118;DHT22;23928;47.562;7.508;2023-06-26T12:47:19;28.20;99.90
38118;DHT22;23928;47.562;7.508;2023-06-26T12:49:49;27.80;99.90
38118;DHT22;23928;47.562;7.508;2023-06-26T12:52:15;27.70;99.90
38118;DHT22;23928;47.562;7.508;2023-06-26T12:54:42;27.70;99.90
38118;DHT22;23928;47.562;7.508;2023-06-26T12:57:09;27.60;99.90
38118;DHT22;23928;47.562;7.508;2023-06-26T12:59:38;27.90;99.90
38118;DHT22;23928;47.562;7.508;2023-06-26T13:02:04;28.00;99.90
38118;DHT22;23928;47.562;7.508;2023-06-26T13:04:30;28.00;99.90
38118;DHT22;23928;47.562;7.508;2023-06-26T13:06:55;28.10;99.90
38118;DHT22;23928;47.562;7.508;2023-06-26T13:09:23;27.90;99.90
38118;DHT22;23928;47.562;7.508;2023-06-26T13:11:53;28.10;99.90
38118;DHT22;23928;47.562;7.508;2023-06-26T13:14:19;28.00;99.90
38118;DHT22;23928;47.562;7.508;2023-06-26T13:16:44;28.40;99.90
38118;DHT22;23928;47.562;7.508;2023-06-26T13:19:10;28.50;99.90
38118;DHT22;23928;47.562;7.508;2023-06-26T13:21:36;28.60;99.90
38118;DHT22;23928;47.562;7.508;2023-06-26T13:24:02;28.50;99.90
38118;DHT22;23928;47.562;7.508;2023-06-26T13:26:32;28.50;99.90
38118;DHT22;23928;47.562;7.508;2023-06-26T13:28:58;28.20;99.90
38118;DHT22;23928;47.562;7.508;2023-06-26T13:31:23;28.20;99.90
38118;DHT22;23928;47.562;7.508;2023-06-26T13:33:49;27.70;99.90
38118;DHT22;23928;47.562;7.508;2023-06-26T13:36:16;28.20;99.90
38118;DHT22;23928;47.562;7.508;2023-06-26T13:38:41;28.20;99.90
38118;DHT22;23928;47.562;7.508;2023-06-26T13:41:07;28.10;99.90
38118;DHT22;23928;47.562;7.508;2023-06-26T13:43:33;28.30;99.90
38118;DHT22;23928;47.562;7.508;2023-06-26T13:45:58;28.10;99.90
38118;DHT22;23928;47.562;7.508;2023-06-26T13:48:24;28.50;99.90
38118;DHT22;23928;47.562;7.508;2023-06-26T13:50:50;28.40;99.90
38118;DHT22;23928;47.562;7.508;2023-06-26T13:53:16;28.50;99.90
38118;DHT22;23928;47.562;7.508;2023-06-26T13:55:42;28.60;99.90
38118;DHT22;23928;47.562;7.508;2023-06-26T13:58:08;28.90;99.90
38118;DHT22;23928;47.562;7.508;2023-06-26T14:00:35;28.80;99.90
38118;DHT22;23928;47.562;7.508;2023-06-26T14:03:05;28.30;99.90
38118;DHT22;23928;47.562;7.508;2023-06-26T14:05:32;28.10;99.90
38118;DHT22;23928;47.562;7.508;2023-06-26T14:07:58;28.50;99.90
38118;DHT22;23928;47.562;7.508;2023-06-26T14:10:24;28.80;99.90
38118;DHT22;23928;47.562;7.508;2023-06-26T14:12:50;28.90;99.90
38118;DHT22;23928;47.562;7.508;2023-06-26T14:15:16;29.00;99.90
38118;DHT22;23928;47.562;7.508;2023-06-26T14:17:42;29.80;99.90
38118;DHT22;23928;47.562;7.508;2023-06-26T14:20:09;29.90;99.90
38118;DHT22;23928;47.562;7.508;2023-06-26T14:22:38;29.20;99.90
38118;DHT22;23928;47.562;7.508;2023-06-26T14:25:04;29.50;99.90
38118;DHT22;23928;47.562;7.508;2023-06-26T14:27:30;29.40;99.90
38118;DHT22;23928;47.562;7.508;2023-06-26T14:29:55;28.60;99.90
38118;DHT22;23928;47.562;7.508;2023-06-26T14:32:21;28.90;99.90
38118;DHT22;23928;47.562;7.508;2023-06-26T14:34:46;28.90;99.90
38118;DHT22;23928;47.562;7.508;2023-06-26T14:37:12;29.40;99.90
38118;DHT22;23928;47.562;7.508;2023-06-26T14:39:37;28.80;99.90
38118;DHT22;23928;47.562;7.508;2023-06-26T14:42:04;29.10;99.90
38118;DHT22;23928;47.562;7.508;2023-06-26T14:44:30;28.50;99.90
38118;DHT22;23928;47.562;7.508;2023-06-26T14:46:56;28.80;99.90
38118;DHT22;23928;47.562;7.508;2023-06-26T14:49:21;28.70;99.90
38118;DHT22;23928;47.562;7.508;2023-06-26T14:51:47;29.10;99.90
38118;DHT22;23928;47.562;7.508;2023-06-26T14:54:13;28.90;99.90
38118;DHT22;23928;47.562;7.508;2023-06-26T14:56:39;28.80;99.90
38118;DHT22;23928;47.562;7.508;2023-06-26T14:59:04;28.40;99.90
38118;DHT22;23928;47.562;7.508;2023-06-26T15:01:33;28.40;99.90
38118;DHT22;23928;47.562;7.508;2023-06-26T15:03:58;28.60;99.90
38118;DHT22;23928;47.562;7.508;2023-06-26T15:06:24;28.80;99.90
38118;DHT22;23928;47.562;7.508;2023-06-26T15:08:50;29.80;99.90
38118;DHT22;23928;47.562;7.508;2023-06-26T15:11:15;29.60;99.90
38118;DHT22;23928;47.562;7.508;2023-06-26T15:13:41;29.50;99.90
38118;DHT22;23928;47.562;7.508;2023-06-26T15:16:06;29.00;99.90
38118;DHT22;23928;47.562;7.508;2023-06-26T15:18:32;28.90;99.90
38118;DHT22;23928;47.562;7.508;2023-06-26T15:20:57;29.20;99.90
38118;DHT22;23928;47.562;7.508;2023-06-26T15:23:23;28.70;99.90
38118;DHT22;23928;47.562;7.508;2023-06-26T15:25:49;29.40;99.90
38118;DHT22;23928;47.562;7.508;2023-06-26T15:28:14;29.90;99.90
38118;DHT22;23928;47.562;7.508;2023-06-26T15:30:40;30.30;99.90
38118;DHT22;23928;47.562;7.508;2023-06-26T15:33:05;29.60;99.90
38118;DHT22;23928;47.562;7.508;2023-06-26T15:35:31;29.50;99.90
38118;DHT22;23928;47.562;7.508;2023-06-26T15:37:57;28.80;99.90
38118;DHT22;23928;47.562;7.508;2023-06-26T15:40:22;28.70;99.90